sensor_id;sensor_type;location;lat;lon;timestamp;P1;durP1;ratioP1;P2;durP2;ratioP2
9485;SDS011;4781;48.776;9.200;2022-12-13T00:01:56;15.98;;;7.75;;
9485;SDS011;4781;48.776;9.200;2022-12-13T00:04:25;17.27;;;8.95;;
9485;SDS011;4781;48.776;9.200;2022-12-13T00:06:53;11.22;;;7.83;;
9485;SDS011;4781;48.776;9.200;2022-12-13T00:09:21;21.90;;;11.65;;
9485;SDS011;4781;48.776;9.200;2022-12-13T00:11:50;16.85;;;8.75;;
9485;SDS011;4781;48.776;9.200;2022-12-13T00:14:19;16.85;;;7.90;;
9485;SDS011;4781;48.776;9.200;2022-12-13T00:16:48;16.07;;;8.68;;
9485;SDS011;4781;48.776;9.200;2022-12-13T00:19:18;12.90;;;7.47;;
9485;SDS011;4781;48.776;9.200;2022-12-13T00:21:47;15.35;;;8.53;;
9485;SDS011;4781;48.776;9.200;2022-12-13T00:24:15;15.98;;;8.60;;
9485;SDS011;4781;48.776;9.200;2022-12-13T00:26:44;17.30;;;9.85;;
9485;SDS011;4781;48.776;9.200;2022-12-13T00:29:12;14.40;;;7.72;;
9485;SDS011;4781;48.776;9.200;2022-12-13T00:31:40;14.30;;;7.80;;
9485;SDS011;4781;48.776;9.200;2022-12-13T00:34:09;16.80;;;7.70;;
9485;SDS011;4781;48.776;9.200;2022-12-13T00:36:37;15.15;;;7.55;;
9485;SDS011;4781;48.776;9.200;2022-12-13T00:39:06;14.10;;;8.20;;
9485;SDS011;4781;48.776;9.200;2022-12-13T00:41:36;16.23;;;9.30;;
9485;SDS011;4781;48.776;9.200;2022-12-13T00:44:05;18.57;;;8.38;;
9485;SDS011;4781;48.776;9.200;2022-12-13T00:46:36;19.80;;;9.28;;
9485;SDS011;4781;48.776;9.200;2022-12-13T00:49:05;17.15;;;8.03;;
9485;SDS011;4781;48.776;9.200;2022-12-13T00:51:35;18.62;;;7.95;;
9485;SDS011;4781;48.776;9.200;2022-12-13T00:54:04;21.17;;;8.53;;
9485;SDS011;4781;48.776;9.200;2022-12-13T00:56:33;14.87;;;7.90;;
9485;SDS011;4781;48.776;9.200;2022-12-13T00:59:03;20.10;;;9.00;;
9485;SDS011;4781;48.776;9.200;2022-12-13T01:01:33;14.30;;;7.10;;
9485;SDS011;4781;48.776;9.200;2022-12-13T01:04:03;16.10;;;7.67;;
9485;SDS011;4781;48.776;9.200;2022-12-13T01:06:34;14.25;;;8.48;;
9485;SDS011;4781;48.776;9.200;2022-12-13T01:09:21;17.77;;;8.58;;
9485;SDS011;4781;48.776;9.200;2022-12-13T01:11:48;12.40;;;7.35;;
9485;SDS011;4781;48.776;9.200;2022-12-13T01:14:16;17.42;;;9.35;;
9485;SDS011;4781;48.776;9.200;2022-12-13T01:16:45;19.00;;;9.18;;
9485;SDS011;4781;48.776;9.200;2022-12-13T01:19:14;14.83;;;8.38;;
9485;SDS011;4781;48.776;9.200;2022-12-13T01:21:42;17.70;;;8.55;;
9485;SDS011;4781;48.776;9.200;2022-12-13T01:24:10;16.20;;;9.18;;
9485;SDS011;4781;48.776;9.200;2022-12-13T01:26:40;18.07;;;8.78;;
9485;SDS011;4781;48.776;9.200;2022-12-13T01:29:08;17.12;;;9.03;;
9485;SDS011;4781;48.776;9.200;2022-12-13T01:31:36;21.95;;;9.70;;
9485;SDS011;4781;48.776;9.200;2022-12-13T01:34:07;19.40;;;9.00;;
9485;SDS011;4781;48.776;9.200;2022-12-13T01:36:40;15.38;;;8.33;;
9485;SDS011;4781;48.776;9.200;2022-12-13T01:39:11;21.35;;;10.70;;
9485;SDS011;4781;48.776;9.200;2022-12-13T01:41:48;18.12;;;7.33;;
9485;SDS011;4781;48.776;9.200;2022-12-13T01:47:29;17.40;;;7.22;;
9485;SDS011;4781;48.776;9.200;2022-12-13T01:50:24;15.68;;;8.65;;
9485;SDS011;4781;48.776;9.200;2022-12-13T01:53:00;15.50;;;8.80;;
9485;SDS011;4781;48.776;9.200;2022-12-13T01:55:33;21.50;;;10.23;;
9485;SDS011;4781;48.776;9.200;2022-12-13T01:58:04;15.13;;;8.15;;
9485;SDS011;4781;48.776;9.200;2022-12-13T02:00:33;15.60;;;8.25;;
9485;SDS011;4781;48.776;9.200;2022-12-13T02:03:02;14.53;;;8.73;;
9485;SDS011;4781;48.776;9.200;2022-12-13T02:05:32;14.65;;;7.62;;
9485;SDS011;4781;48.776;9.200;2022-12-13T02:08:10;15.63;;;7.72;;
9485;SDS011;4781;48.776;9.200;2022-12-13T02:10:41;22.22;;;8.85;;
9485;SDS011;4781;48.776;9.200;2022-12-13T02:13:11;16.27;;;7.58;;
9485;SDS011;4781;48.776;9.200;2022-12-13T02:15:46;14.00;;;7.17;;
9485;SDS011;4781;48.776;9.200;2022-12-13T02:30:13;16.17;;;7.67;;
9485;SDS011;4781;48.776;9.200;2022-12-13T02:33:16;16.07;;;8.18;;
9485;SDS011;4781;48.776;9.200;2022-12-13T02:36:21;12.60;;;6.97;;
9485;SDS011;4781;48.776;9.200;2022-12-13T02:38:57;14.53;;;7.20;;
9485;SDS011;4781;48.776;9.200;2022-12-13T02:41:58;14.80;;;7.60;;
9485;SDS011;4781;48.776;9.200;2022-12-13T02:44:17;11.03;;;6.50;;
9485;SDS011;4781;48.776;9.200;2022-12-13T02:46:54;18.65;;;7.87;;
9485;SDS011;4781;48.776;9.200;2022-12-13T02:49:32;23.40;;;7.50;;
9485;SDS011;4781;48.776;9.200;2022-12-13T02:52:04;19.60;;;8.35;;
9485;SDS011;4781;48.776;9.200;2022-12-13T02:54:35;19.20;;;8.28;;
9485;SDS011;4781;48.776;9.200;2022-12-13T02:57:25;17.25;;;7.83;;
9485;SDS011;4781;48.776;9.200;2022-12-13T03:00:04;17.77;;;9.13;;
9485;SDS011;4781;48.776;9.200;2022-12-13T03:02:41;16.60;;;8.30;;
9485;SDS011;4781;48.776;9.200;2022-12-13T03:05:35;13.53;;;7.62;;
9485;SDS011;4781;48.776;9.200;2022-12-13T03:08:24;14.15;;;6.97;;
9485;SDS011;4781;48.776;9.200;2022-12-13T03:11:14;16.30;;;7.42;;
9485;SDS011;4781;48.776;9.200;2022-12-13T03:13:54;19.65;;;9.10;;
9485;SDS011;4781;48.776;9.200;2022-12-13T03:16:29;19.32;;;8.03;;
9485;SDS011;4781;48.776;9.200;2022-12-13T03:19:07;11.57;;;6.42;;
9485;SDS011;4781;48.776;9.200;2022-12-13T03:21:44;13.80;;;7.28;;
9485;SDS011;4781;48.776;9.200;2022-12-13T03:24:15;13.08;;;7.40;;
9485;SDS011;4781;48.776;9.200;2022-12-13T03:26:49;13.70;;;7.42;;
9485;SDS011;4781;48.776;9.200;2022-12-13T03:29:18;17.07;;;8.10;;
9485;SDS011;4781;48.776;9.200;2022-12-13T03:31:46;15.23;;;7.85;;
9485;SDS011;4781;48.776;9.200;2022-12-13T03:34:15;16.90;;;8.65;;
9485;SDS011;4781;48.776;9.200;2022-12-13T03:36:43;15.43;;;7.37;;
9485;SDS011;4781;48.776;9.200;2022-12-13T03:39:11;14.83;;;7.47;;
9485;SDS011;4781;48.776;9.200;2022-12-13T03:41:40;15.70;;;8.23;;
9485;SDS011;4781;48.776;9.200;2022-12-13T03:44:08;12.53;;;7.10;;
9485;SDS011;4781;48.776;9.200;2022-12-13T03:46:36;13.28;;;8.18;;
9485;SDS011;4781;48.776;9.200;2022-12-13T03:49:05;12.37;;;6.65;;
9485;SDS011;4781;48.776;9.200;2022-12-13T03:51:33;12.75;;;7.05;;
9485;SDS011;4781;48.776;9.200;2022-12-13T03:54:02;21.48;;;8.83;;
9485;SDS011;4781;48.776;9.200;2022-12-13T03:56:30;13.08;;;6.05;;
9485;SDS011;4781;48.776;9.200;2022-12-13T03:58:58;15.90;;;7.90;;
9485;SDS011;4781;48.776;9.200;2022-12-13T04:01:27;13.43;;;7.28;;
9485;SDS011;4781;48.776;9.200;2022-12-13T04:03:55;20.65;;;9.18;;
9485;SDS011;4781;48.776;9.200;2022-12-13T04:06:24;16.40;;;7.95;;
9485;SDS011;4781;48.776;9.200;2022-12-13T04:08:54;15.85;;;7.30;;
9485;SDS011;4781;48.776;9.200;2022-12-13T04:11:22;16.37;;;6.92;;
9485;SDS011;4781;48.776;9.200;2022-12-13T04:14:08;16.48;;;6.95;;
9485;SDS011;4781;48.776;9.200;2022-12-13T04:16:37;14.40;;;7.40;;
9485;SDS011;4781;48.776;9.200;2022-12-13T04:19:06;13.18;;;6.37;;
9485;SDS011;4781;48.776;9.200;2022-12-13T04:21:34;17.32;;;7.95;;
9485;SDS011;4781;48.776;9.200;2022-12-13T04:24:02;20.12;;;9.03;;
9485;SDS011;4781;48.776;9.200;2022-12-13T04:26:31;15.83;;;7.62;;
9485;SDS011;4781;48.776;9.200;2022-12-13T04:28:59;12.47;;;7.72;;
9485;SDS011;4781;48.776;9.200;2022-12-13T04:31:28;15.78;;;7.97;;
9485;SDS011;4781;48.776;9.200;2022-12-13T04:33:56;15.83;;;7.78;;
9485;SDS011;4781;48.776;9.200;2022-12-13T04:36:25;20.15;;;8.15;;
9485;SDS011;4781;48.776;9.200;2022-12-13T04:38:53;16.57;;;7.85;;
9485;SDS011;4781;48.776;9.200;2022-12-13T04:41:21;19.95;;;7.87;;
9485;SDS011;4781;48.776;9.200;2022-12-13T04:43:55;12.20;;;7.15;;
9485;SDS011;4781;48.776;9.200;2022-12-13T04:46:21;13.22;;;7.30;;
9485;SDS011;4781;48.776;9.200;2022-12-13T04:48:50;21.40;;;7.12;;
9485;SDS011;4781;48.776;9.200;2022-12-13T04:51:18;14.15;;;7.15;;
9485;SDS011;4781;48.776;9.200;2022-12-13T04:53:46;14.25;;;6.55;;
9485;SDS011;4781;48.776;9.200;2022-12-13T04:56:15;15.48;;;6.83;;
9485;SDS011;4781;48.776;9.200;2022-12-13T04:58:44;14.85;;;7.80;;
9485;SDS011;4781;48.776;9.200;2022-12-13T05:01:13;11.68;;;5.70;;
9485;SDS011;4781;48.776;9.200;2022-12-13T05:03:41;13.13;;;5.95;;
9485;SDS011;4781;48.776;9.200;2022-12-13T05:06:11;11.25;;;6.53;;
9485;SDS011;4781;48.776;9.200;2022-12-13T05:08:40;13.50;;;6.17;;
9485;SDS011;4781;48.776;9.200;2022-12-13T05:11:09;12.88;;;6.45;;
9485;SDS011;4781;48.776;9.200;2022-12-13T05:13:38;12.30;;;7.00;;
9485;SDS011;4781;48.776;9.200;2022-12-13T05:16:07;9.93;;;6.72;;
9485;SDS011;4781;48.776;9.200;2022-12-13T05:18:36;16.95;;;7.03;;
9485;SDS011;4781;48.776;9.200;2022-12-13T05:21:05;12.25;;;6.55;;
9485;SDS011;4781;48.776;9.200;2022-12-13T05:23:36;11.30;;;7.12;;
9485;SDS011;4781;48.776;9.200;2022-12-13T05:26:05;14.53;;;5.55;;
9485;SDS011;4781;48.776;9.200;2022-12-13T05:28:33;14.18;;;6.47;;
9485;SDS011;4781;48.776;9.200;2022-12-13T05:31:06;17.07;;;7.53;;
9485;SDS011;4781;48.776;9.200;2022-12-13T05:33:37;12.82;;;7.10;;
9485;SDS011;4781;48.776;9.200;2022-12-13T05:36:05;15.15;;;6.78;;
9485;SDS011;4781;48.776;9.200;2022-12-13T05:38:35;19.50;;;8.13;;
9485;SDS011;4781;48.776;9.200;2022-12-13T05:41:03;11.12;;;5.87;;
9485;SDS011;4781;48.776;9.200;2022-12-13T05:43:32;20.57;;;7.75;;
9485;SDS011;4781;48.776;9.200;2022-12-13T05:46:01;13.48;;;6.35;;
9485;SDS011;4781;48.776;9.200;2022-12-13T05:48:29;13.35;;;6.62;;
9485;SDS011;4781;48.776;9.200;2022-12-13T05:50:57;13.28;;;7.97;;
9485;SDS011;4781;48.776;9.200;2022-12-13T05:53:26;11.15;;;6.45;;
9485;SDS011;4781;48.776;9.200;2022-12-13T05:55:58;19.02;;;7.45;;
9485;SDS011;4781;48.776;9.200;2022-12-13T05:58:28;17.20;;;8.80;;
9485;SDS011;4781;48.776;9.200;2022-12-13T06:01:03;10.95;;;6.28;;
9485;SDS011;4781;48.776;9.200;2022-12-13T06:03:35;14.75;;;7.22;;
9485;SDS011;4781;48.776;9.200;2022-12-13T06:06:04;10.15;;;6.33;;
9485;SDS011;4781;48.776;9.200;2022-12-13T06:08:35;16.42;;;6.72;;
9485;SDS011;4781;48.776;9.200;2022-12-13T06:11:04;16.45;;;7.47;;
9485;SDS011;4781;48.776;9.200;2022-12-13T06:13:33;12.78;;;6.25;;
9485;SDS011;4781;48.776;9.200;2022-12-13T06:16:02;13.50;;;7.17;;
9485;SDS011;4781;48.776;9.200;2022-12-13T06:18:33;15.85;;;6.45;;
9485;SDS011;4781;48.776;9.200;2022-12-13T06:21:03;13.53;;;6.62;;
9485;SDS011;4781;48.776;9.200;2022-12-13T06:23:33;13.95;;;7.92;;
9485;SDS011;4781;48.776;9.200;2022-12-13T06:26:03;14.78;;;6.90;;
9485;SDS011;4781;48.776;9.200;2022-12-13T06:28:33;22.35;;;9.05;;
9485;SDS011;4781;48.776;9.200;2022-12-13T06:31:02;14.43;;;6.87;;
9485;SDS011;4781;48.776;9.200;2022-12-13T06:33:31;17.60;;;7.60;;
9485;SDS011;4781;48.776;9.200;2022-12-13T06:36:02;12.60;;;7.58;;
9485;SDS011;4781;48.776;9.200;2022-12-13T06:38:32;12.55;;;6.22;;
9485;SDS011;4781;48.776;9.200;2022-12-13T06:41:07;15.30;;;7.58;;
9485;SDS011;4781;48.776;9.200;2022-12-13T06:43:41;12.68;;;7.20;;
9485;SDS011;4781;48.776;9.200;2022-12-13T06:46:12;23.55;;;8.00;;
9485;SDS011;4781;48.776;9.200;2022-12-13T06:48:41;13.45;;;6.80;;
9485;SDS011;4781;48.776;9.200;2022-12-13T06:51:10;13.20;;;7.22;;
9485;SDS011;4781;48.776;9.200;2022-12-13T06:53:39;16.17;;;8.33;;
9485;SDS011;4781;48.776;9.200;2022-12-13T06:56:11;15.03;;;7.72;;
9485;SDS011;4781;48.776;9.200;2022-12-13T06:58:41;11.15;;;6.20;;
9485;SDS011;4781;48.776;9.200;2022-12-13T07:01:14;11.10;;;6.53;;
9485;SDS011;4781;48.776;9.200;2022-12-13T07:03:44;12.68;;;7.22;;
9485;SDS011;4781;48.776;9.200;2022-12-13T07:06:16;19.23;;;8.65;;
9485;SDS011;4781;48.776;9.200;2022-12-13T07:11:35;14.47;;;5.97;;
9485;SDS011;4781;48.776;9.200;2022-12-13T07:14:04;17.45;;;7.47;;
9485;SDS011;4781;48.776;9.200;2022-12-13T07:16:32;15.15;;;6.22;;
9485;SDS011;4781;48.776;9.200;2022-12-13T07:19:01;20.90;;;6.67;;
9485;SDS011;4781;48.776;9.200;2022-12-13T07:21:30;13.43;;;5.80;;
9485;SDS011;4781;48.776;9.200;2022-12-13T07:24:00;15.10;;;8.05;;
9485;SDS011;4781;48.776;9.200;2022-12-13T07:26:29;21.77;;;8.75;;
9485;SDS011;4781;48.776;9.200;2022-12-13T07:28:57;17.57;;;7.72;;
9485;SDS011;4781;48.776;9.200;2022-12-13T07:31:25;13.53;;;6.17;;
9485;SDS011;4781;48.776;9.200;2022-12-13T07:33:54;12.98;;;7.00;;
9485;SDS011;4781;48.776;9.200;2022-12-13T07:36:22;18.17;;;8.35;;
9485;SDS011;4781;48.776;9.200;2022-12-13T07:38:54;20.20;;;7.72;;
9485;SDS011;4781;48.776;9.200;2022-12-13T07:41:24;16.07;;;7.60;;
9485;SDS011;4781;48.776;9.200;2022-12-13T07:43:53;13.80;;;7.20;;
9485;SDS011;4781;48.776;9.200;2022-12-13T07:46:22;15.18;;;8.45;;
9485;SDS011;4781;48.776;9.200;2022-12-13T07:48:51;18.30;;;8.05;;
9485;SDS011;4781;48.776;9.200;2022-12-13T07:51:19;11.05;;;6.62;;
9485;SDS011;4781;48.776;9.200;2022-12-13T07:53:48;14.43;;;7.42;;
9485;SDS011;4781;48.776;9.200;2022-12-13T07:56:16;13.48;;;6.25;;
9485;SDS011;4781;48.776;9.200;2022-12-13T07:58:45;11.30;;;5.85;;
9485;SDS011;4781;48.776;9.200;2022-12-13T08:01:13;12.60;;;7.47;;
9485;SDS011;4781;48.776;9.200;2022-12-13T08:03:43;14.07;;;7.62;;
9485;SDS011;4781;48.776;9.200;2022-12-13T08:06:15;14.73;;;7.00;;
9485;SDS011;4781;48.776;9.200;2022-12-13T08:08:44;11.83;;;6.00;;
9485;SDS011;4781;48.776;9.200;2022-12-13T08:11:14;12.40;;;6.35;;
9485;SDS011;4781;48.776;9.200;2022-12-13T08:13:43;13.93;;;6.92;;
9485;SDS011;4781;48.776;9.200;2022-12-13T08:16:11;19.45;;;7.80;;
9485;SDS011;4781;48.776;9.200;2022-12-13T08:18:42;15.32;;;8.25;;
9485;SDS011;4781;48.776;9.200;2022-12-13T08:21:13;13.88;;;6.50;;
9485;SDS011;4781;48.776;9.200;2022-12-13T08:23:41;12.15;;;6.85;;
9485;SDS011;4781;48.776;9.200;2022-12-13T08:26:10;15.70;;;7.75;;
9485;SDS011;4781;48.776;9.200;2022-12-13T08:28:38;17.73;;;7.67;;
9485;SDS011;4781;48.776;9.200;2022-12-13T08:31:08;20.85;;;9.38;;
9485;SDS011;4781;48.776;9.200;2022-12-13T08:33:39;15.40;;;7.65;;
9485;SDS011;4781;48.776;9.200;2022-12-13T08:36:13;17.98;;;8.30;;
9485;SDS011;4781;48.776;9.200;2022-12-13T08:38:43;16.52;;;9.68;;
9485;SDS011;4781;48.776;9.200;2022-12-13T08:41:12;18.10;;;7.55;;
9485;SDS011;4781;48.776;9.200;2022-12-13T08:43:41;12.70;;;7.25;;
9485;SDS011;4781;48.776;9.200;2022-12-13T08:46:09;14.98;;;8.58;;
9485;SDS011;4781;48.776;9.200;2022-12-13T08:48:37;17.15;;;8.85;;
9485;SDS011;4781;48.776;9.200;2022-12-13T08:51:07;14.30;;;8.00;;
9485;SDS011;4781;48.776;9.200;2022-12-13T08:53:38;14.43;;;7.35;;
9485;SDS011;4781;48.776;9.200;2022-12-13T08:56:09;15.03;;;8.30;;
9485;SDS011;4781;48.776;9.200;2022-12-13T08:58:38;19.17;;;8.73;;
9485;SDS011;4781;48.776;9.200;2022-12-13T09:01:07;16.17;;;7.42;;
9485;SDS011;4781;48.776;9.200;2022-12-13T09:03:37;16.48;;;7.78;;
9485;SDS011;4781;48.776;9.200;2022-12-13T09:06:06;17.37;;;8.58;;
9485;SDS011;4781;48.776;9.200;2022-12-13T09:08:37;13.20;;;6.95;;
9485;SDS011;4781;48.776;9.200;2022-12-13T09:11:06;16.85;;;7.20;;
9485;SDS011;4781;48.776;9.200;2022-12-13T09:13:37;14.73;;;7.20;;
9485;SDS011;4781;48.776;9.200;2022-12-13T09:16:06;11.55;;;7.22;;
9485;SDS011;4781;48.776;9.200;2022-12-13T09:18:39;15.58;;;7.10;;
9485;SDS011;4781;48.776;9.200;2022-12-13T09:21:08;12.05;;;6.30;;
9485;SDS011;4781;48.776;9.200;2022-12-13T09:23:39;14.50;;;7.97;;
9485;SDS011;4781;48.776;9.200;2022-12-13T09:26:14;23.77;;;9.28;;
9485;SDS011;4781;48.776;9.200;2022-12-13T09:28:40;19.10;;;7.42;;
9485;SDS011;4781;48.776;9.200;2022-12-13T09:31:10;21.60;;;8.85;;
9485;SDS011;4781;48.776;9.200;2022-12-13T09:33:43;14.25;;;7.62;;
9485;SDS011;4781;48.776;9.200;2022-12-13T09:36:13;23.83;;;7.92;;
9485;SDS011;4781;48.776;9.200;2022-12-13T09:38:45;20.37;;;8.80;;
9485;SDS011;4781;48.776;9.200;2022-12-13T09:41:33;16.77;;;7.90;;
9485;SDS011;4781;48.776;9.200;2022-12-13T09:44:05;14.58;;;7.17;;
9485;SDS011;4781;48.776;9.200;2022-12-13T09:46:49;18.15;;;8.20;;
9485;SDS011;4781;48.776;9.200;2022-12-13T09:49:25;16.35;;;7.53;;
9485;SDS011;4781;48.776;9.200;2022-12-13T09:52:03;15.88;;;7.55;;
9485;SDS011;4781;48.776;9.200;2022-12-13T09:54:33;25.32;;;8.58;;
9485;SDS011;4781;48.776;9.200;2022-12-13T09:57:02;18.32;;;8.40;;
9485;SDS011;4781;48.776;9.200;2022-12-13T09:59:33;16.37;;;8.25;;
9485;SDS011;4781;48.776;9.200;2022-12-13T10:02:16;18.90;;;7.80;;
9485;SDS011;4781;48.776;9.200;2022-12-13T10:04:43;15.30;;;7.03;;
9485;SDS011;4781;48.776;9.200;2022-12-13T10:07:19;16.67;;;8.35;;
9485;SDS011;4781;48.776;9.200;2022-12-13T10:09:53;15.13;;;7.40;;
9485;SDS011;4781;48.776;9.200;2022-12-13T10:12:23;16.10;;;7.70;;
9485;SDS011;4781;48.776;9.200;2022-12-13T10:14:54;15.03;;;7.33;;
9485;SDS011;4781;48.776;9.200;2022-12-13T10:17:25;17.32;;;7.58;;
9485;SDS011;4781;48.776;9.200;2022-12-13T10:20:00;14.23;;;7.53;;
9485;SDS011;4781;48.776;9.200;2022-12-13T10:22:30;18.00;;;6.95;;
9485;SDS011;4781;48.776;9.200;2022-12-13T10:24:59;23.80;;;7.42;;
9485;SDS011;4781;48.776;9.200;2022-12-13T10:27:34;17.67;;;7.45;;
9485;SDS011;4781;48.776;9.200;2022-12-13T10:35:31;16.12;;;6.58;;
9485;SDS011;4781;48.776;9.200;2022-12-13T10:40:53;16.07;;;6.85;;
9485;SDS011;4781;48.776;9.200;2022-12-13T10:43:21;20.37;;;7.12;;
9485;SDS011;4781;48.776;9.200;2022-12-13T10:46:00;18.25;;;7.00;;
9485;SDS011;4781;48.776;9.200;2022-12-13T10:48:39;22.02;;;7.58;;
9485;SDS011;4781;48.776;9.200;2022-12-13T10:51:15;16.70;;;7.13;;
9485;SDS011;4781;48.776;9.200;2022-12-13T10:53:54;16.95;;;7.17;;
9485;SDS011;4781;48.776;9.200;2022-12-13T10:56:59;16.12;;;6.20;;
9485;SDS011;4781;48.776;9.200;2022-12-13T10:59:09;14.10;;;6.65;;
9485;SDS011;4781;48.776;9.200;2022-12-13T11:01:56;17.95;;;6.22;;
9485;SDS011;4781;48.776;9.200;2022-12-13T11:04:29;25.50;;;6.37;;
9485;SDS011;4781;48.776;9.200;2022-12-13T11:09:46;14.23;;;6.05;;
9485;SDS011;4781;48.776;9.200;2022-12-13T11:12:16;21.12;;;6.55;;
9485;SDS011;4781;48.776;9.200;2022-12-13T11:14:55;20.10;;;6.72;;
9485;SDS011;4781;48.776;9.200;2022-12-13T11:17:29;13.48;;;6.53;;
9485;SDS011;4781;48.776;9.200;2022-12-13T11:20:03;16.65;;;6.25;;
9485;SDS011;4781;48.776;9.200;2022-12-13T11:22:34;13.05;;;6.33;;
9485;SDS011;4781;48.776;9.200;2022-12-13T11:25:08;10.98;;;5.12;;
9485;SDS011;4781;48.776;9.200;2022-12-13T11:42:18;13.08;;;6.05;;
9485;SDS011;4781;48.776;9.200;2022-12-13T11:47:47;12.68;;;5.33;;
9485;SDS011;4781;48.776;9.200;2022-12-13T11:50:47;14.35;;;5.70;;
9485;SDS011;4781;48.776;9.200;2022-12-13T11:56:13;15.70;;;6.28;;
9485;SDS011;4781;48.776;9.200;2022-12-13T11:59:01;13.20;;;5.62;;
9485;SDS011;4781;48.776;9.200;2022-12-13T12:02:02;15.50;;;6.83;;
9485;SDS011;4781;48.776;9.200;2022-12-13T12:04:54;13.58;;;6.72;;
9485;SDS011;4781;48.776;9.200;2022-12-13T12:07:20;14.68;;;6.70;;
9485;SDS011;4781;48.776;9.200;2022-12-13T12:13:03;15.30;;;5.80;;
9485;SDS011;4781;48.776;9.200;2022-12-13T12:15:44;11.65;;;5.62;;
9485;SDS011;4781;48.776;9.200;2022-12-13T12:18:17;19.17;;;7.30;;
9485;SDS011;4781;48.776;9.200;2022-12-13T12:20:48;14.30;;;6.05;;
9485;SDS011;4781;48.776;9.200;2022-12-13T12:26:22;14.65;;;6.08;;
9485;SDS011;4781;48.776;9.200;2022-12-13T12:31:39;16.90;;;6.80;;
9485;SDS011;4781;48.776;9.200;2022-12-13T12:42:28;14.40;;;6.45;;
9485;SDS011;4781;48.776;9.200;2022-12-13T12:48:13;12.10;;;6.00;;
9485;SDS011;4781;48.776;9.200;2022-12-13T12:50:58;14.75;;;6.87;;
9485;SDS011;4781;48.776;9.200;2022-12-13T12:53:37;14.95;;;5.87;;
9485;SDS011;4781;48.776;9.200;2022-12-13T12:56:24;18.00;;;7.25;;
9485;SDS011;4781;48.776;9.200;2022-12-13T12:59:13;16.00;;;6.33;;
9485;SDS011;4781;48.776;9.200;2022-12-13T13:02:15;13.40;;;6.58;;
9485;SDS011;4781;48.776;9.200;2022-12-13T13:04:53;15.90;;;6.25;;
9485;SDS011;4781;48.776;9.200;2022-12-13T13:07:26;18.82;;;7.08;;
9485;SDS011;4781;48.776;9.200;2022-12-13T13:09:57;14.90;;;6.78;;
9485;SDS011;4781;48.776;9.200;2022-12-13T13:12:28;15.28;;;7.20;;
9485;SDS011;4781;48.776;9.200;2022-12-13T13:14:58;16.05;;;6.92;;
9485;SDS011;4781;48.776;9.200;2022-12-13T13:20:24;22.58;;;6.87;;
9485;SDS011;4781;48.776;9.200;2022-12-13T13:22:51;18.42;;;7.28;;
9485;SDS011;4781;48.776;9.200;2022-12-13T13:25:31;14.58;;;6.42;;
9485;SDS011;4781;48.776;9.200;2022-12-13T13:28:05;15.85;;;6.25;;
9485;SDS011;4781;48.776;9.200;2022-12-13T13:31:00;14.23;;;5.60;;
9485;SDS011;4781;48.776;9.200;2022-12-13T13:33:44;10.03;;;4.83;;
9485;SDS011;4781;48.776;9.200;2022-12-13T13:39:17;20.32;;;6.20;;
9485;SDS011;4781;48.776;9.200;2022-12-13T13:45:00;14.13;;;5.60;;
9485;SDS011;4781;48.776;9.200;2022-12-13T13:53:59;12.93;;;5.10;;
9485;SDS011;4781;48.776;9.200;2022-12-13T13:57:07;14.68;;;5.95;;
9485;SDS011;4781;48.776;9.200;2022-12-13T14:08:24;10.70;;;4.35;;
9485;SDS011;4781;48.776;9.200;2022-12-13T14:11:18;10.45;;;4.92;;
9485;SDS011;4781;48.776;9.200;2022-12-13T14:14:21;13.90;;;5.55;;
9485;SDS011;4781;48.776;9.200;2022-12-13T14:30:52;18.50;;;5.62;;
9485;SDS011;4781;48.776;9.200;2022-12-13T14:33:21;11.33;;;4.90;;
9485;SDS011;4781;48.776;9.200;2022-12-13T14:35:52;14.90;;;5.40;;
9485;SDS011;4781;48.776;9.200;2022-12-13T14:38:24;9.85;;;4.37;;
9485;SDS011;4781;48.776;9.200;2022-12-13T14:40:57;9.50;;;4.92;;
9485;SDS011;4781;48.776;9.200;2022-12-13T14:43:28;15.38;;;5.20;;
9485;SDS011;4781;48.776;9.200;2022-12-13T14:46:00;13.60;;;5.70;;
9485;SDS011;4781;48.776;9.200;2022-12-13T14:48:47;13.53;;;4.75;;
9485;SDS011;4781;48.776;9.200;2022-12-13T14:51:30;11.83;;;5.15;;
9485;SDS011;4781;48.776;9.200;2022-12-13T14:53:58;13.48;;;4.75;;
9485;SDS011;4781;48.776;9.200;2022-12-13T14:56:28;12.13;;;5.17;;
9485;SDS011;4781;48.776;9.200;2022-12-13T14:59:00;14.30;;;5.67;;
9485;SDS011;4781;48.776;9.200;2022-12-13T15:01:33;13.68;;;5.62;;
9485;SDS011;4781;48.776;9.200;2022-12-13T15:04:16;13.75;;;5.05;;
9485;SDS011;4781;48.776;9.200;2022-12-13T15:09:41;13.55;;;5.40;;
9485;SDS011;4781;48.776;9.200;2022-12-13T15:12:12;11.00;;;5.15;;
9485;SDS011;4781;48.776;9.200;2022-12-13T15:14:47;10.85;;;5.12;;
9485;SDS011;4781;48.776;9.200;2022-12-13T15:17:32;9.73;;;4.53;;
9485;SDS011;4781;48.776;9.200;2022-12-13T15:23:00;10.48;;;5.03;;
9485;SDS011;4781;48.776;9.200;2022-12-13T15:25:32;16.37;;;5.67;;
9485;SDS011;4781;48.776;9.200;2022-12-13T15:28:02;16.70;;;5.50;;
9485;SDS011;4781;48.776;9.200;2022-12-13T15:30:33;9.80;;;4.70;;
9485;SDS011;4781;48.776;9.200;2022-12-13T15:33:21;14.10;;;5.00;;
9485;SDS011;4781;48.776;9.200;2022-12-13T15:36:02;13.75;;;6.05;;
9485;SDS011;4781;48.776;9.200;2022-12-13T15:38:38;12.13;;;5.33;;
9485;SDS011;4781;48.776;9.200;2022-12-13T15:41:18;15.10;;;6.12;;
9485;SDS011;4781;48.776;9.200;2022-12-13T15:43:45;12.18;;;6.12;;
9485;SDS011;4781;48.776;9.200;2022-12-13T15:46:23;14.18;;;5.58;;
9485;SDS011;4781;48.776;9.200;2022-12-13T15:48:58;10.93;;;5.15;;
9485;SDS011;4781;48.776;9.200;2022-12-13T15:51:29;15.35;;;5.85;;
9485;SDS011;4781;48.776;9.200;2022-12-13T15:54:01;11.88;;;4.80;;
9485;SDS011;4781;48.776;9.200;2022-12-13T15:56:37;12.13;;;5.58;;
9485;SDS011;4781;48.776;9.200;2022-12-13T16:01:59;11.83;;;5.12;;
9485;SDS011;4781;48.776;9.200;2022-12-13T16:04:31;13.98;;;5.28;;
9485;SDS011;4781;48.776;9.200;2022-12-13T16:07:00;16.42;;;5.97;;
9485;SDS011;4781;48.776;9.200;2022-12-13T16:09:30;12.07;;;5.10;;
9485;SDS011;4781;48.776;9.200;2022-12-13T16:12:03;15.78;;;5.08;;
9485;SDS011;4781;48.776;9.200;2022-12-13T16:14:37;13.85;;;5.40;;
9485;SDS011;4781;48.776;9.200;2022-12-13T16:17:11;17.85;;;4.70;;
9485;SDS011;4781;48.776;9.200;2022-12-13T16:19:52;11.73;;;5.00;;
9485;SDS011;4781;48.776;9.200;2022-12-13T16:22:23;11.93;;;5.28;;
9485;SDS011;4781;48.776;9.200;2022-12-13T16:24:52;11.78;;;5.00;;
9485;SDS011;4781;48.776;9.200;2022-12-13T16:27:21;12.95;;;4.87;;
9485;SDS011;4781;48.776;9.200;2022-12-13T16:29:49;13.32;;;5.08;;
9485;SDS011;4781;48.776;9.200;2022-12-13T16:32:18;11.25;;;5.37;;
9485;SDS011;4781;48.776;9.200;2022-12-13T16:34:46;14.73;;;4.97;;
9485;SDS011;4781;48.776;9.200;2022-12-13T16:37:15;17.23;;;4.95;;
9485;SDS011;4781;48.776;9.200;2022-12-13T16:39:45;10.30;;;4.67;;
9485;SDS011;4781;48.776;9.200;2022-12-13T16:42:13;12.53;;;5.65;;
9485;SDS011;4781;48.776;9.200;2022-12-13T16:44:41;11.35;;;5.17;;
9485;SDS011;4781;48.776;9.200;2022-12-13T16:47:11;11.28;;;5.53;;
9485;SDS011;4781;48.776;9.200;2022-12-13T16:49:40;14.15;;;5.30;;
9485;SDS011;4781;48.776;9.200;2022-12-13T16:52:08;12.10;;;5.65;;
9485;SDS011;4781;48.776;9.200;2022-12-13T16:54:37;16.62;;;6.45;;
9485;SDS011;4781;48.776;9.200;2022-12-13T16:57:05;14.30;;;5.08;;
9485;SDS011;4781;48.776;9.200;2022-12-13T16:59:34;12.53;;;4.87;;
9485;SDS011;4781;48.776;9.200;2022-12-13T17:02:02;14.68;;;5.80;;
9485;SDS011;4781;48.776;9.200;2022-12-13T17:04:31;11.95;;;5.92;;
9485;SDS011;4781;48.776;9.200;2022-12-13T17:06:59;15.23;;;5.60;;
9485;SDS011;4781;48.776;9.200;2022-12-13T17:09:28;14.90;;;5.67;;
9485;SDS011;4781;48.776;9.200;2022-12-13T17:12:00;13.40;;;5.95;;
9485;SDS011;4781;48.776;9.200;2022-12-13T17:14:28;15.48;;;6.62;;
9485;SDS011;4781;48.776;9.200;2022-12-13T17:16:57;11.75;;;5.33;;
9485;SDS011;4781;48.776;9.200;2022-12-13T17:19:25;12.58;;;4.95;;
9485;SDS011;4781;48.776;9.200;2022-12-13T17:21:54;15.85;;;6.87;;
9485;SDS011;4781;48.776;9.200;2022-12-13T17:24:22;14.70;;;6.83;;
9485;SDS011;4781;48.776;9.200;2022-12-13T17:26:51;15.08;;;5.67;;
9485;SDS011;4781;48.776;9.200;2022-12-13T17:29:22;12.37;;;5.45;;